createdAt,value
2018-08-19T00:02:21.259Z,82.10
2018-08-19T00:05:06.877Z,82.30
2018-08-19T00:07:37.510Z,84.00
2018-08-19T00:10:07.410Z,83.70
2018-08-19T00:12:40.168Z,84.10
2018-08-19T00:15:09.479Z,83.30
2018-08-19T00:17:39.025Z,83.70
2018-08-19T00:25:33.602Z,85.60
2018-08-19T00:28:04.796Z,84.50
2018-08-19T00:30:35.346Z,85.50
2018-08-19T00:36:00.697Z,86.20
2018-08-19T00:38:30.084Z,86.70
2018-08-19T00:40:59.551Z,85.80
2018-08-19T00:43:28.687Z,84.60
2018-08-19T00:45:56.954Z,83.60
2018-08-19T00:48:26.102Z,83.00
2018-08-19T00:50:55.334Z,82.80
2018-08-19T00:53:25.381Z,83.20
2018-08-19T00:55:55.279Z,84.10
2018-08-19T00:58:24.662Z,84.50
2018-08-19T01:00:54.261Z,85.70
2018-08-19T01:03:23.741Z,87.00
2018-08-19T01:05:52.945Z,88.30
2018-08-19T01:08:22.508Z,88.00
2018-08-19T01:10:52.567Z,86.90
2018-08-19T01:13:21.873Z,86.10
2018-08-19T01:15:51.353Z,88.30
2018-08-19T01:18:20.609Z,88.10
2018-08-19T01:20:54.568Z,88.80
2018-08-19T01:23:23.864Z,89.20
2018-08-19T01:25:52.971Z,88.90
2018-08-19T01:28:22.024Z,88.10
2018-08-19T01:30:52.026Z,88.40
2018-08-19T01:33:21.254Z,88.00
2018-08-19T01:35:50.385Z,87.80
2018-08-19T01:38:19.705Z,87.40
2018-08-19T01:40:49.000Z,87.10
2018-08-19T01:43:18.470Z,86.70
2018-08-19T01:45:48.583Z,87.50
2018-08-19T01:48:17.773Z,88.30
2018-08-19T01:50:46.887Z,87.70
2018-08-19T01:53:16.319Z,87.60
2018-08-19T01:55:45.682Z,88.00
2018-08-19T01:58:14.809Z,87.90
2018-08-19T02:00:44.112Z,89.40
2018-08-19T02:03:13.447Z,89.60
2018-08-19T02:05:43.758Z,88.40
2018-08-19T02:10:50.619Z,86.50
2018-08-19T02:13:21.925Z,85.70
2018-08-19T02:15:52.365Z,86.30
2018-08-19T02:18:22.996Z,86.30
2018-08-19T02:20:52.656Z,88.30
2018-08-19T02:23:21.998Z,88.10
2018-08-19T02:25:51.429Z,87.10
2018-08-19T02:28:21.875Z,86.40
2018-08-19T02:30:56.227Z,88.50
2018-08-19T02:33:25.470Z,88.50
2018-08-19T02:36:00.082Z,89.10
2018-08-19T02:38:29.767Z,90.30
2018-08-19T02:40:58.893Z,90.20
2018-08-19T02:43:28.103Z,90.30
2018-08-19T02:45:57.593Z,90.00
2018-08-19T02:48:45.004Z,90.00
2018-08-19T02:51:16.803Z,90.20
2018-08-19T02:53:47.393Z,90.00
2018-08-19T02:56:17.315Z,88.60
2018-08-19T02:58:47.417Z,89.00
2018-08-19T03:01:18.001Z,90.00
2018-08-19T03:03:48.489Z,90.20
2018-08-19T03:06:18.202Z,90.40
2018-08-19T03:08:53.039Z,90.70
2018-08-19T03:11:22.868Z,90.60
2018-08-19T03:13:51.984Z,90.40
2018-08-19T03:16:21.422Z,90.60
2018-08-19T03:18:51.978Z,90.20
2018-08-19T03:21:23.618Z,90.60
2018-08-19T03:23:54.239Z,91.10
2018-08-19T03:26:23.332Z,90.50
2018-08-19T03:28:52.872Z,90.50
2018-08-19T03:31:22.065Z,90.50
2018-08-19T03:33:51.187Z,90.10
2018-08-19T03:36:20.347Z,89.90
2018-08-19T03:38:49.771Z,90.30
2018-08-19T03:41:19.257Z,90.10
2018-08-19T03:43:53.427Z,89.90
2018-08-19T03:46:23.921Z,90.10
2018-08-19T03:48:53.174Z,89.30
2018-08-19T03:51:22.997Z,89.40
2018-08-19T03:53:53.017Z,89.00
2018-08-19T03:56:27.524Z,88.50
2018-08-19T03:58:59.810Z,88.60
2018-08-19T04:01:38.799Z,89.00
2018-08-19T04:04:09.440Z,89.30
2018-08-19T04:06:40.058Z,89.40
2018-08-19T04:09:09.947Z,90.30
2018-08-19T04:11:39.331Z,90.00
2018-08-19T04:14:26.436Z,90.00
2018-08-19T04:16:59.323Z,89.80
2018-08-19T04:19:30.739Z,89.10
2018-08-19T04:22:01.997Z,90.30
2018-08-19T04:24:31.703Z,90.40
2018-08-19T04:27:12.478Z,89.90
2018-08-19T04:32:22.623Z,88.10
2018-08-19T04:34:52.069Z,87.30
2018-08-19T04:37:21.583Z,89.90
2018-08-19T04:39:50.927Z,89.80
2018-08-19T04:42:20.408Z,90.00
2018-08-19T04:44:49.614Z,89.50
2018-08-19T04:47:29.596Z,89.00
2018-08-19T04:49:58.906Z,87.90
2018-08-19T04:52:28.266Z,88.50
2018-08-19T04:57:33.154Z,87.60
2018-08-19T05:00:02.316Z,87.30
2018-08-19T05:02:31.802Z,87.30
2018-08-19T05:05:01.084Z,86.90
2018-08-19T05:07:30.558Z,85.90
2018-08-19T05:09:59.694Z,85.20
2018-08-19T05:12:29.081Z,85.90
2018-08-19T05:14:58.255Z,86.20
2018-08-19T05:17:27.669Z,83.90
2018-08-19T05:20:16.030Z,83.10
2018-08-19T05:22:45.305Z,82.90
2018-08-19T05:25:14.324Z,81.40
2018-08-19T05:27:43.417Z,82.30
2018-08-19T05:30:12.329Z,81.50
2018-08-19T05:32:46.964Z,81.60
2018-08-19T05:35:15.935Z,81.30
2018-08-19T05:37:44.983Z,79.80
2018-08-19T05:40:14.000Z,78.70
2018-08-19T05:42:42.960Z,77.90
2018-08-19T05:45:11.968Z,77.90
2018-08-19T05:47:40.940Z,78.50
2018-08-19T05:50:09.984Z,79.20
2018-08-19T05:52:39.040Z,78.30
2018-08-19T05:55:08.355Z,79.20
2018-08-19T05:57:43.757Z,76.90
2018-08-19T06:00:18.469Z,78.00
2018-08-19T06:02:47.481Z,76.00
2018-08-19T06:05:16.368Z,74.60
2018-08-19T06:07:45.748Z,76.40
2018-08-19T06:10:14.753Z,74.80
2018-08-19T06:12:43.690Z,75.80
2018-08-19T06:15:12.590Z,75.60
2018-08-19T06:17:41.539Z,76.60
2018-08-19T06:20:11.146Z,74.60
2018-08-19T06:22:41.547Z,72.40
2018-08-19T06:25:11.946Z,73.20
2018-08-19T06:27:45.598Z,75.90
2018-08-19T06:30:15.620Z,71.80
2018-08-19T06:32:45.581Z,72.60
2018-08-19T06:35:15.272Z,71.40
2018-08-19T06:37:44.839Z,71.80
2018-08-19T06:42:56.820Z,71.20
2018-08-19T06:45:25.719Z,70.90
2018-08-19T06:47:54.523Z,71.20
2018-08-19T06:50:26.912Z,71.40
2018-08-19T06:52:56.237Z,71.20
2018-08-19T06:55:25.172Z,71.00
2018-08-19T06:57:57.050Z,71.60
2018-08-19T07:00:31.911Z,70.50
2018-08-19T07:03:04.102Z,70.70
2018-08-19T07:05:33.680Z,70.20
2018-08-19T07:08:03.126Z,68.60
2018-08-19T07:10:39.095Z,69.00
2018-08-19T07:13:10.471Z,68.30
2018-08-19T07:15:40.686Z,68.70
2018-08-19T07:18:12.217Z,68.90
2018-08-19T07:20:41.932Z,68.70
2018-08-19T07:23:11.210Z,68.00
2018-08-19T07:25:45.225Z,68.10
2018-08-19T07:28:15.514Z,68.50
2018-08-19T07:30:44.516Z,67.10
2018-08-19T07:33:13.920Z,68.20
2018-08-19T07:35:42.753Z,68.00
2018-08-19T07:38:11.905Z,67.10
2018-08-19T07:40:41.118Z,66.80
2018-08-19T07:43:10.193Z,66.60
2018-08-19T07:45:39.203Z,66.60
2018-08-19T07:48:08.321Z,66.90
2018-08-19T07:50:37.325Z,66.20
2018-08-19T07:53:06.393Z,67.10
2018-08-19T07:55:35.396Z,66.10
2018-08-19T07:58:04.615Z,65.50
2018-08-19T08:00:41.333Z,63.10
2018-08-19T08:03:10.462Z,64.80
2018-08-19T08:05:44.908Z,64.70
2018-08-19T08:08:13.857Z,63.20
2018-08-19T08:10:42.926Z,62.00
2018-08-19T08:13:13.280Z,62.00
2018-08-19T08:15:47.538Z,61.90
2018-08-19T08:20:58.913Z,63.20
2018-08-19T08:23:29.716Z,62.60
2018-08-19T08:25:58.710Z,60.50
2018-08-19T08:28:27.729Z,58.70
2018-08-19T08:30:56.947Z,60.00
2018-08-19T08:33:26.231Z,58.80
2018-08-19T08:38:31.758Z,58.10
2018-08-19T08:41:02.002Z,58.80
2018-08-19T08:43:30.985Z,57.70
2018-08-19T08:46:00.745Z,58.20
2018-08-19T08:48:30.500Z,56.90
2018-08-19T08:51:03.162Z,56.30
2018-08-19T08:53:40.442Z,56.10
2018-08-19T08:56:09.386Z,54.20
2018-08-19T08:58:38.400Z,53.80
2018-08-19T09:01:07.487Z,53.20
2018-08-19T09:03:36.523Z,51.40
2018-08-19T09:06:15.400Z,52.30
2018-08-19T09:08:44.496Z,51.00
2018-08-19T09:11:13.864Z,51.40
2018-08-19T09:13:42.941Z,51.40
2018-08-19T09:16:11.989Z,51.60
2018-08-19T09:18:41.127Z,50.70
2018-08-19T09:21:10.160Z,49.80
2018-08-19T09:23:39.249Z,50.70
2018-08-19T09:26:08.345Z,50.60
2018-08-19T09:28:37.281Z,51.30
2018-08-19T09:31:06.507Z,51.30
2018-08-19T09:33:36.346Z,50.10
2018-08-19T09:36:06.438Z,51.50
2018-08-19T09:38:36.220Z,51.80
2018-08-19T09:41:06.257Z,50.70
2018-08-19T09:43:35.218Z,49.50
2018-08-19T09:46:04.413Z,49.00
2018-08-19T09:48:33.469Z,48.30
2018-08-19T09:51:05.500Z,47.80
2018-08-19T09:53:35.208Z,49.60
2018-08-19T09:56:09.210Z,49.00
2018-08-19T09:58:38.430Z,47.70
2018-08-19T10:01:14.023Z,44.80
2018-08-19T10:03:42.974Z,45.60
2018-08-19T10:06:12.288Z,46.60
2018-08-19T10:08:41.486Z,48.00
2018-08-19T10:11:11.483Z,47.30
2018-08-19T10:13:40.557Z,47.40
2018-08-19T10:16:09.524Z,46.60
2018-08-19T10:18:38.672Z,47.20
2018-08-19T10:21:12.705Z,45.90
2018-08-19T10:23:42.479Z,44.90
2018-08-19T10:26:11.659Z,46.50
2018-08-19T10:28:41.849Z,46.40
2018-08-19T10:31:17.974Z,45.30
2018-08-19T10:33:47.450Z,47.10
2018-08-19T10:36:16.436Z,47.50
2018-08-19T10:38:45.328Z,46.30
2018-08-19T10:41:14.352Z,44.80
2018-08-19T10:43:43.650Z,45.80
2018-08-19T10:46:12.656Z,44.00
2018-08-19T10:48:41.918Z,46.70
2018-08-19T10:56:10.695Z,44.60
2018-08-19T10:58:45.535Z,43.60
2018-08-19T11:01:15.122Z,44.20
2018-08-19T11:03:43.997Z,46.60
2018-08-19T11:06:12.932Z,45.90
2018-08-19T11:08:49.547Z,45.00
2018-08-19T11:11:18.556Z,42.70
2018-08-19T11:13:48.032Z,42.70
2018-08-19T11:16:17.313Z,44.30
2018-08-19T11:18:47.891Z,42.40
2018-08-19T11:21:29.044Z,43.50
2018-08-19T11:23:59.262Z,42.60
2018-08-19T11:26:28.637Z,43.80
2018-08-19T11:29:00.793Z,44.00
2018-08-19T11:31:32.130Z,45.00
2018-08-19T11:36:44.227Z,42.10
2018-08-19T11:39:15.460Z,42.20
2018-08-19T11:41:44.349Z,43.50
2018-08-19T11:44:15.450Z,41.10
2018-08-19T11:46:44.419Z,43.70
2018-08-19T11:49:15.590Z,44.70
2018-08-19T11:51:49.805Z,42.70
2018-08-19T11:54:20.781Z,41.80
2018-08-19T11:56:57.054Z,43.50
2018-08-19T11:59:31.912Z,42.30
2018-08-19T12:02:02.155Z,42.00
2018-08-19T12:04:31.868Z,40.70
2018-08-19T12:07:01.260Z,41.40
2018-08-19T12:09:30.690Z,39.60
2018-08-19T12:12:00.117Z,40.20
2018-08-19T12:14:33.103Z,40.90
2018-08-19T12:17:02.828Z,42.20
2018-08-19T12:19:32.397Z,41.20
2018-08-19T12:22:02.584Z,39.70
2018-08-19T12:24:35.560Z,40.80
2018-08-19T12:27:06.573Z,41.00
2018-08-19T12:29:36.404Z,39.60
2018-08-19T12:32:27.751Z,41.40
2018-08-19T12:34:58.257Z,39.40
2018-08-19T12:37:28.261Z,40.30
2018-08-19T12:39:57.753Z,39.70
2018-08-19T12:42:27.651Z,39.20
2018-08-19T12:45:12.207Z,42.20
2018-08-19T12:47:41.014Z,39.40
2018-08-19T12:50:15.301Z,41.80
2018-08-19T12:52:44.325Z,39.90
2018-08-19T12:57:55.570Z,40.20
2018-08-19T13:00:27.995Z,41.50
2018-08-19T13:02:56.819Z,40.10
2018-08-19T13:05:25.702Z,40.60
2018-08-19T13:07:54.768Z,39.40
2018-08-19T13:10:27.606Z,42.00
2018-08-19T13:12:57.697Z,40.30
2018-08-19T13:15:28.923Z,39.90
2018-08-19T13:17:57.850Z,38.30
2018-08-19T13:20:27.152Z,40.20
2018-08-19T13:22:59.743Z,40.10
2018-08-19T13:25:28.858Z,39.00
2018-08-19T13:27:58.215Z,38.60
2018-08-19T13:30:27.779Z,38.70
2018-08-19T13:32:56.833Z,39.50
2018-08-19T13:35:25.963Z,37.30
2018-08-19T13:37:55.946Z,38.20
2018-08-19T13:40:25.864Z,37.10
2018-08-19T13:42:54.992Z,38.60
2018-08-19T13:45:26.196Z,37.90
2018-08-19T13:47:55.599Z,38.30
2018-08-19T13:50:25.961Z,38.40
2018-08-19T13:52:55.092Z,38.00
2018-08-19T13:55:24.683Z,38.00
2018-08-19T13:57:54.328Z,38.60
2018-08-19T14:03:02.936Z,39.60
2018-08-19T14:05:32.735Z,38.80
2018-08-19T14:08:02.712Z,35.40
2018-08-19T14:10:32.814Z,37.90
2018-08-19T14:13:02.655Z,37.30
2018-08-19T14:15:32.042Z,38.70
2018-08-19T14:18:04.838Z,39.40
2018-08-19T14:20:33.798Z,39.70
2018-08-19T14:23:03.188Z,38.50
2018-08-19T14:25:32.148Z,38.30
2018-08-19T14:28:01.009Z,39.20
2018-08-19T14:30:30.237Z,38.00
2018-08-19T14:35:33.960Z,37.90
2018-08-19T14:38:03.776Z,37.10
2018-08-19T14:43:09.664Z,39.50
2018-08-19T14:45:38.741Z,40.20
2018-08-19T14:48:07.931Z,39.00
2018-08-19T14:50:36.975Z,40.40
2018-08-19T14:53:05.959Z,40.00
2018-08-19T14:55:38.208Z,40.50
2018-08-19T14:58:10.869Z,41.40
2018-08-19T15:00:41.114Z,42.80
2018-08-19T15:03:13.713Z,44.00
2018-08-19T15:05:47.720Z,44.20
2018-08-19T15:08:20.072Z,44.10
2018-08-19T15:10:57.537Z,44.90
2018-08-19T15:13:29.256Z,44.20
2018-08-19T15:15:59.704Z,45.40
2018-08-19T15:18:31.456Z,45.80
2018-08-19T15:21:05.375Z,45.20
2018-08-19T15:23:37.956Z,44.10
2018-08-19T15:26:10.931Z,44.30
2018-08-19T15:28:40.906Z,43.10
2018-08-19T15:31:16.832Z,44.00
2018-08-19T15:33:50.158Z,43.90
2018-08-19T15:36:21.440Z,42.60
2018-08-19T15:38:52.556Z,42.10
2018-08-19T15:41:23.833Z,42.70
2018-08-19T15:43:56.165Z,43.00
2018-08-19T15:46:28.344Z,42.50
2018-08-19T15:48:59.003Z,43.00
2018-08-19T15:51:31.878Z,42.70
2018-08-19T15:54:03.384Z,42.20
2018-08-19T15:56:36.159Z,43.90
2018-08-19T15:59:10.269Z,43.30
2018-08-19T16:04:25.041Z,45.00
2018-08-19T16:06:56.647Z,45.30
2018-08-19T16:09:30.036Z,43.20
2018-08-19T16:14:41.622Z,44.00
2018-08-19T16:17:12.639Z,45.20
2018-08-19T16:19:45.355Z,43.70
2018-08-19T16:22:17.859Z,42.40
2018-08-19T16:24:51.477Z,42.80
2018-08-19T16:27:24.254Z,43.10
2018-08-19T16:32:31.062Z,44.80
2018-08-19T16:35:03.311Z,46.20
2018-08-19T16:37:34.905Z,46.00
2018-08-19T16:40:07.541Z,43.20
2018-08-19T16:42:39.353Z,44.40
2018-08-19T16:45:13.808Z,44.80
2018-08-19T16:47:44.901Z,45.70
2018-08-19T16:50:23.320Z,46.90
2018-08-19T16:52:58.513Z,47.50
2018-08-19T16:55:31.221Z,47.90
2018-08-19T17:00:41.365Z,48.50
2018-08-19T17:03:26.310Z,48.90
2018-08-19T17:06:00.246Z,49.10
2018-08-19T17:08:33.850Z,49.60
2018-08-19T17:11:06.838Z,49.80
2018-08-19T17:13:39.188Z,49.70
2018-08-19T17:16:09.565Z,49.40
2018-08-19T17:18:44.433Z,50.60
2018-08-19T17:21:16.142Z,51.30
2018-08-19T17:23:53.759Z,51.40
2018-08-19T17:26:26.726Z,51.40
2018-08-19T17:29:32.646Z,52.10
2018-08-19T17:32:05.834Z,51.10
2018-08-19T17:34:40.589Z,51.30
2018-08-19T17:37:12.993Z,52.10
2018-08-19T17:39:46.841Z,52.00
2018-08-19T17:42:19.917Z,52.00
2018-08-19T17:44:53.184Z,52.40
2018-08-19T17:47:25.526Z,52.90
2018-08-19T17:49:59.753Z,53.30
2018-08-19T17:52:32.870Z,52.50
2018-08-19T17:55:04.720Z,52.90
2018-08-19T17:57:36.976Z,52.70
2018-08-19T18:00:08.801Z,53.40
2018-08-19T18:02:40.774Z,53.50
2018-08-19T18:05:17.045Z,53.40
2018-08-19T18:07:56.711Z,53.70
2018-08-19T18:10:28.230Z,53.60
2018-08-19T18:13:00.336Z,54.30
2018-08-19T18:15:32.721Z,54.70
2018-08-19T18:18:08.877Z,54.40
2018-08-19T18:20:45.748Z,54.30
2018-08-19T18:23:34.149Z,54.70
2018-08-19T18:26:05.625Z,55.00
2018-08-19T18:28:36.466Z,55.50
2018-08-19T18:31:09.184Z,56.30
2018-08-19T18:33:51.815Z,56.70
2018-08-19T18:36:25.007Z,57.60
2018-08-19T18:38:58.366Z,58.10
2018-08-19T18:41:35.674Z,58.90
2018-08-19T18:44:09.603Z,59.00
2018-08-19T18:46:43.283Z,58.90
2018-08-19T18:49:17.401Z,60.00
2018-08-19T18:51:50.131Z,58.70
2018-08-19T18:54:33.946Z,60.20
2018-08-19T18:57:09.109Z,59.40
2018-08-19T18:59:45.818Z,59.30
2018-08-19T19:02:18.850Z,60.20
2018-08-19T19:04:51.796Z,60.80
2018-08-19T19:07:24.134Z,62.20
2018-08-19T19:09:55.831Z,61.60
2018-08-19T19:12:25.668Z,61.60
2018-08-19T19:14:56.365Z,61.60
2018-08-19T19:17:30.075Z,62.40
2018-08-19T19:20:02.485Z,64.00
2018-08-19T19:22:34.209Z,64.00
2018-08-19T19:25:04.264Z,64.30
2018-08-19T19:27:36.776Z,66.00
2018-08-19T19:30:09.218Z,65.70
2018-08-19T19:32:41.640Z,66.40
2018-08-19T19:35:17.011Z,64.70
2018-08-19T19:37:49.959Z,64.10
2018-08-19T19:40:22.485Z,63.80
2018-08-19T19:42:54.493Z,64.00
2018-08-19T19:45:24.917Z,65.10
2018-08-19T19:50:36.239Z,64.30
2018-08-19T19:53:07.856Z,64.00
2018-08-19T19:55:41.795Z,64.10
2018-08-19T19:58:14.608Z,64.40
2018-08-19T20:00:55.453Z,64.40
2018-08-19T20:03:27.628Z,64.30
2018-08-19T20:05:59.315Z,64.80
2018-08-19T20:08:29.409Z,65.50
2018-08-19T20:11:07.441Z,64.50
2018-08-19T20:13:38.062Z,65.20
2018-08-19T20:16:13.310Z,64.50
2018-08-19T20:18:47.533Z,65.80
2018-08-19T20:21:23.612Z,65.90
2018-08-19T20:23:57.828Z,65.60
2018-08-19T20:26:29.981Z,66.10
2018-08-19T20:29:04.217Z,65.40
2018-08-19T20:31:35.787Z,67.30
2018-08-19T20:34:04.990Z,66.50
2018-08-19T20:36:34.942Z,67.00
2018-08-19T20:39:11.005Z,65.40
2018-08-19T20:41:41.945Z,66.70
2018-08-19T20:44:15.956Z,66.50
2018-08-19T20:46:54.662Z,66.60
2018-08-19T20:49:26.652Z,67.40
2018-08-19T20:51:58.845Z,66.20
2018-08-19T20:54:29.212Z,65.60
2018-08-19T20:56:59.516Z,66.10
2018-08-19T20:59:35.159Z,67.10
2018-08-19T21:02:07.698Z,66.90
2018-08-19T21:04:40.893Z,68.90
2018-08-19T21:07:12.649Z,68.30
2018-08-19T21:09:43.923Z,68.20
2018-08-19T21:12:14.578Z,67.20
2018-08-19T21:14:45.951Z,68.40
2018-08-19T21:17:18.485Z,68.80
2018-08-19T21:19:51.004Z,68.20
2018-08-19T21:22:22.411Z,70.10
2018-08-19T21:27:32.661Z,69.90
2018-08-19T21:30:03.441Z,71.20
2018-08-19T21:32:35.004Z,71.10
2018-08-19T21:35:07.543Z,70.30
2018-08-19T21:37:39.346Z,69.80
2018-08-19T21:40:14.072Z,71.60
2018-08-19T21:42:52.569Z,70.80
2018-08-19T21:45:23.305Z,72.00
2018-08-19T21:53:19.157Z,72.40
2018-08-19T21:55:51.295Z,72.20
2018-08-19T21:58:22.479Z,74.50
2018-08-19T22:00:59.895Z,73.20
2018-08-19T22:03:36.817Z,73.80
2018-08-19T22:06:08.762Z,74.30
2018-08-19T22:11:19.125Z,72.90
2018-08-19T22:13:49.941Z,74.80
2018-08-19T22:16:20.553Z,74.40
2018-08-19T22:18:52.333Z,74.70
2018-08-19T22:21:23.777Z,75.20
2018-08-19T22:23:57.885Z,75.20
2018-08-19T22:26:29.526Z,74.40
2018-08-19T22:29:14.529Z,76.50
2018-08-19T22:31:48.195Z,77.20
2018-08-19T22:34:23.742Z,76.90
2018-08-19T22:36:55.683Z,76.20
2018-08-19T22:39:25.822Z,74.90
2018-08-19T22:41:58.214Z,76.10
2018-08-19T22:44:29.959Z,74.60
2018-08-19T22:47:00.257Z,74.70
2018-08-19T22:49:33.552Z,76.00
2018-08-19T22:52:25.904Z,78.00
2018-08-19T22:54:59.318Z,77.10
2018-08-19T22:57:32.400Z,76.50
2018-08-19T23:00:04.320Z,76.90
2018-08-19T23:02:35.708Z,76.50
2018-08-19T23:05:08.695Z,76.10
2018-08-19T23:07:40.619Z,77.10
2018-08-19T23:10:11.603Z,77.60
2018-08-19T23:12:44.177Z,77.20
2018-08-19T23:15:24.555Z,76.80
2018-08-19T23:17:56.912Z,78.80
2018-08-19T23:20:30.073Z,78.80
2018-08-19T23:23:00.723Z,79.60
2018-08-19T23:25:31.567Z,79.60
2018-08-19T23:28:03.739Z,80.90
2018-08-19T23:30:35.918Z,81.20
2018-08-19T23:33:05.943Z,81.50
2018-08-19T23:35:39.900Z,81.50
2018-08-19T23:38:11.628Z,81.70
2018-08-19T23:40:43.711Z,81.70
2018-08-19T23:43:15.915Z,81.80
2018-08-19T23:45:48.513Z,82.80
2018-08-19T23:48:18.600Z,83.10
2018-08-19T23:50:51.030Z,82.60
2018-08-19T23:53:23.338Z,83.00
2018-08-19T23:55:53.680Z,80.90
2018-08-19T23:58:26.600Z,82.70
